sensor_id;sensor_type;location;lat;lon;timestamp;P1;durP1;ratioP1;P2;durP2;ratioP2
82560;SDS011;72228;51.208;10.468;2024-02-26T00:00:07;5.43;;;3.10;;
82560;SDS011;72228;51.208;10.468;2024-02-26T00:02:37;7.43;;;3.25;;
82560;SDS011;72228;51.208;10.468;2024-02-26T00:05:06;10.30;;;4.32;;
82560;SDS011;72228;51.208;10.468;2024-02-26T00:07:33;8.48;;;4.57;;
82560;SDS011;72228;51.208;10.468;2024-02-26T00:09:59;11.02;;;4.93;;
82560;SDS011;72228;51.208;10.468;2024-02-26T00:12:25;4.82;;;3.67;;
82560;SDS011;72228;51.208;10.468;2024-02-26T00:14:51;6.18;;;3.38;;
82560;SDS011;72228;51.208;10.468;2024-02-26T00:17:18;4.13;;;3.30;;
82560;SDS011;72228;51.208;10.468;2024-02-26T00:19:44;4.22;;;3.08;;
82560;SDS011;72228;51.208;10.468;2024-02-26T00:22:10;7.45;;;3.83;;
82560;SDS011;72228;51.208;10.468;2024-02-26T00:24:36;6.30;;;3.35;;
82560;SDS011;72228;51.208;10.468;2024-02-26T00:27:01;8.95;;;3.72;;
82560;SDS011;72228;51.208;10.468;2024-02-26T00:29:27;6.05;;;3.03;;
82560;SDS011;72228;51.208;10.468;2024-02-26T00:31:53;7.88;;;3.50;;
82560;SDS011;72228;51.208;10.468;2024-02-26T00:34:19;4.13;;;2.85;;
82560;SDS011;72228;51.208;10.468;2024-02-26T00:36:45;8.20;;;3.92;;
82560;SDS011;72228;51.208;10.468;2024-02-26T00:39:11;6.28;;;2.88;;
82560;SDS011;72228;51.208;10.468;2024-02-26T00:41:38;5.50;;;2.90;;
82560;SDS011;72228;51.208;10.468;2024-02-26T00:44:05;4.97;;;2.83;;
82560;SDS011;72228;51.208;10.468;2024-02-26T00:46:30;8.90;;;3.72;;
82560;SDS011;72228;51.208;10.468;2024-02-26T00:48:56;4.35;;;3.30;;
82560;SDS011;72228;51.208;10.468;2024-02-26T00:51:22;6.57;;;3.78;;
82560;SDS011;72228;51.208;10.468;2024-02-26T00:53:48;6.70;;;3.40;;
82560;SDS011;72228;51.208;10.468;2024-02-26T00:56:14;5.63;;;2.88;;
82560;SDS011;72228;51.208;10.468;2024-02-26T00:58:40;7.13;;;3.17;;
82560;SDS011;72228;51.208;10.468;2024-02-26T01:01:06;5.03;;;3.42;;
82560;SDS011;72228;51.208;10.468;2024-02-26T01:03:32;4.90;;;3.17;;
82560;SDS011;72228;51.208;10.468;2024-02-26T01:05:58;4.82;;;3.13;;
82560;SDS011;72228;51.208;10.468;2024-02-26T01:08:24;6.63;;;3.58;;
82560;SDS011;72228;51.208;10.468;2024-02-26T01:10:49;6.85;;;3.47;;
82560;SDS011;72228;51.208;10.468;2024-02-26T01:13:16;5.32;;;3.15;;
82560;SDS011;72228;51.208;10.468;2024-02-26T01:15:41;4.57;;;3.20;;
82560;SDS011;72228;51.208;10.468;2024-02-26T01:18:09;6.40;;;3.88;;
82560;SDS011;72228;51.208;10.468;2024-02-26T01:20:35;7.97;;;4.47;;
82560;SDS011;72228;51.208;10.468;2024-02-26T01:23:01;6.43;;;4.15;;
82560;SDS011;72228;51.208;10.468;2024-02-26T01:25:27;6.38;;;3.70;;
82560;SDS011;72228;51.208;10.468;2024-02-26T01:27:53;6.70;;;3.00;;
82560;SDS011;72228;51.208;10.468;2024-02-26T01:30:19;7.53;;;3.85;;
82560;SDS011;72228;51.208;10.468;2024-02-26T01:32:45;7.03;;;3.17;;
82560;SDS011;72228;51.208;10.468;2024-02-26T01:35:11;6.57;;;3.80;;
82560;SDS011;72228;51.208;10.468;2024-02-26T01:37:37;6.80;;;3.35;;
82560;SDS011;72228;51.208;10.468;2024-02-26T01:40:03;7.65;;;3.85;;
82560;SDS011;72228;51.208;10.468;2024-02-26T01:42:31;4.40;;;3.35;;
82560;SDS011;72228;51.208;10.468;2024-02-26T01:44:58;5.88;;;3.50;;
82560;SDS011;72228;51.208;10.468;2024-02-26T01:47:24;5.30;;;2.90;;
82560;SDS011;72228;51.208;10.468;2024-02-26T01:49:52;5.05;;;2.85;;
82560;SDS011;72228;51.208;10.468;2024-02-26T01:52:18;7.15;;;2.92;;
82560;SDS011;72228;51.208;10.468;2024-02-26T01:54:45;4.75;;;2.95;;
82560;SDS011;72228;51.208;10.468;2024-02-26T01:57:11;9.68;;;2.65;;
82560;SDS011;72228;51.208;10.468;2024-02-26T01:59:39;5.30;;;3.30;;
82560;SDS011;72228;51.208;10.468;2024-02-26T02:02:07;5.40;;;2.85;;
82560;SDS011;72228;51.208;10.468;2024-02-26T02:04:35;5.63;;;2.80;;
82560;SDS011;72228;51.208;10.468;2024-02-26T02:07:02;5.72;;;2.63;;
82560;SDS011;72228;51.208;10.468;2024-02-26T02:09:28;7.32;;;3.33;;
82560;SDS011;72228;51.208;10.468;2024-02-26T02:11:54;4.13;;;2.53;;
82560;SDS011;72228;51.208;10.468;2024-02-26T02:14:21;4.90;;;3.40;;
82560;SDS011;72228;51.208;10.468;2024-02-26T02:16:47;5.53;;;3.10;;
82560;SDS011;72228;51.208;10.468;2024-02-26T02:19:13;4.38;;;2.88;;
82560;SDS011;72228;51.208;10.468;2024-02-26T02:21:39;4.38;;;2.65;;
82560;SDS011;72228;51.208;10.468;2024-02-26T02:24:05;5.28;;;2.80;;
82560;SDS011;72228;51.208;10.468;2024-02-26T02:26:31;3.63;;;3.00;;
82560;SDS011;72228;51.208;10.468;2024-02-26T02:28:57;3.63;;;2.58;;
82560;SDS011;72228;51.208;10.468;2024-02-26T02:31:24;7.80;;;3.38;;
82560;SDS011;72228;51.208;10.468;2024-02-26T02:33:50;4.78;;;2.83;;
82560;SDS011;72228;51.208;10.468;2024-02-26T02:36:16;5.53;;;2.95;;
82560;SDS011;72228;51.208;10.468;2024-02-26T02:38:48;5.32;;;2.95;;
82560;SDS011;72228;51.208;10.468;2024-02-26T02:41:18;4.90;;;3.08;;
82560;SDS011;72228;51.208;10.468;2024-02-26T02:44:03;5.18;;;2.72;;
82560;SDS011;72228;51.208;10.468;2024-02-26T02:46:29;8.02;;;3.15;;
82560;SDS011;72228;51.208;10.468;2024-02-26T02:48:56;5.28;;;3.05;;
82560;SDS011;72228;51.208;10.468;2024-02-26T02:51:22;4.45;;;2.78;;
82560;SDS011;72228;51.208;10.468;2024-02-26T02:53:48;4.43;;;2.38;;
82560;SDS011;72228;51.208;10.468;2024-02-26T02:56:13;5.15;;;2.40;;
82560;SDS011;72228;51.208;10.468;2024-02-26T02:58:39;4.15;;;3.03;;
82560;SDS011;72228;51.208;10.468;2024-02-26T03:01:05;3.88;;;2.75;;
82560;SDS011;72228;51.208;10.468;2024-02-26T03:03:31;5.65;;;3.13;;
82560;SDS011;72228;51.208;10.468;2024-02-26T03:05:57;6.40;;;3.30;;
82560;SDS011;72228;51.208;10.468;2024-02-26T03:08:23;5.68;;;3.05;;
82560;SDS011;72228;51.208;10.468;2024-02-26T03:10:51;3.40;;;2.25;;
82560;SDS011;72228;51.208;10.468;2024-02-26T03:13:17;6.38;;;3.17;;
82560;SDS011;72228;51.208;10.468;2024-02-26T03:15:43;5.63;;;3.17;;
82560;SDS011;72228;51.208;10.468;2024-02-26T03:18:09;3.45;;;2.63;;
82560;SDS011;72228;51.208;10.468;2024-02-26T03:20:34;6.40;;;3.05;;
82560;SDS011;72228;51.208;10.468;2024-02-26T03:23:00;5.53;;;2.88;;
82560;SDS011;72228;51.208;10.468;2024-02-26T03:25:26;4.07;;;2.80;;
82560;SDS011;72228;51.208;10.468;2024-02-26T03:27:52;4.68;;;2.80;;
82560;SDS011;72228;51.208;10.468;2024-02-26T03:30:18;3.90;;;3.00;;
82560;SDS011;72228;51.208;10.468;2024-02-26T03:32:43;3.97;;;3.08;;
82560;SDS011;72228;51.208;10.468;2024-02-26T03:35:09;6.35;;;3.53;;
82560;SDS011;72228;51.208;10.468;2024-02-26T03:37:35;6.95;;;3.15;;
82560;SDS011;72228;51.208;10.468;2024-02-26T03:40:01;5.72;;;3.10;;
82560;SDS011;72228;51.208;10.468;2024-02-26T03:42:28;5.57;;;3.22;;
82560;SDS011;72228;51.208;10.468;2024-02-26T03:44:54;3.85;;;3.13;;
82560;SDS011;72228;51.208;10.468;2024-02-26T03:47:20;3.38;;;2.38;;
82560;SDS011;72228;51.208;10.468;2024-02-26T03:49:46;5.30;;;2.88;;
82560;SDS011;72228;51.208;10.468;2024-02-26T03:52:11;4.80;;;2.75;;
82560;SDS011;72228;51.208;10.468;2024-02-26T03:54:37;5.07;;;3.13;;
82560;SDS011;72228;51.208;10.468;2024-02-26T03:57:03;8.88;;;3.80;;
82560;SDS011;72228;51.208;10.468;2024-02-26T03:59:29;4.03;;;2.85;;
82560;SDS011;72228;51.208;10.468;2024-02-26T04:01:55;4.68;;;3.00;;
82560;SDS011;72228;51.208;10.468;2024-02-26T04:04:21;5.93;;;2.97;;
82560;SDS011;72228;51.208;10.468;2024-02-26T04:06:47;4.78;;;2.78;;
82560;SDS011;72228;51.208;10.468;2024-02-26T04:09:13;5.05;;;2.50;;
82560;SDS011;72228;51.208;10.468;2024-02-26T04:11:40;6.05;;;2.78;;
82560;SDS011;72228;51.208;10.468;2024-02-26T04:14:06;15.23;;;3.00;;
82560;SDS011;72228;51.208;10.468;2024-02-26T04:16:34;5.95;;;3.20;;
82560;SDS011;72228;51.208;10.468;2024-02-26T04:19:03;6.90;;;3.65;;
82560;SDS011;72228;51.208;10.468;2024-02-26T04:21:29;4.90;;;2.85;;
82560;SDS011;72228;51.208;10.468;2024-02-26T04:23:55;4.63;;;2.60;;
82560;SDS011;72228;51.208;10.468;2024-02-26T04:26:21;6.93;;;2.95;;
82560;SDS011;72228;51.208;10.468;2024-02-26T04:28:47;4.78;;;2.92;;
82560;SDS011;72228;51.208;10.468;2024-02-26T04:31:13;2.60;;;2.22;;
82560;SDS011;72228;51.208;10.468;2024-02-26T04:33:39;4.57;;;3.17;;
82560;SDS011;72228;51.208;10.468;2024-02-26T04:36:04;4.30;;;2.72;;
82560;SDS011;72228;51.208;10.468;2024-02-26T04:38:30;5.50;;;3.15;;
82560;SDS011;72228;51.208;10.468;2024-02-26T04:40:56;4.10;;;2.72;;
82560;SDS011;72228;51.208;10.468;2024-02-26T04:43:22;6.70;;;3.72;;
82560;SDS011;72228;51.208;10.468;2024-02-26T04:45:48;6.57;;;3.42;;
82560;SDS011;72228;51.208;10.468;2024-02-26T04:48:13;4.72;;;3.13;;
82560;SDS011;72228;51.208;10.468;2024-02-26T04:50:39;4.40;;;3.20;;
82560;SDS011;72228;51.208;10.468;2024-02-26T04:53:05;7.45;;;4.15;;
82560;SDS011;72228;51.208;10.468;2024-02-26T04:55:31;9.65;;;4.38;;
82560;SDS011;72228;51.208;10.468;2024-02-26T04:57:57;8.23;;;4.70;;
82560;SDS011;72228;51.208;10.468;2024-02-26T05:00:23;10.43;;;4.40;;
82560;SDS011;72228;51.208;10.468;2024-02-26T05:02:49;6.22;;;3.80;;
82560;SDS011;72228;51.208;10.468;2024-02-26T05:05:15;7.30;;;2.90;;
82560;SDS011;72228;51.208;10.468;2024-02-26T05:07:41;6.15;;;3.67;;
82560;SDS011;72228;51.208;10.468;2024-02-26T05:10:07;4.35;;;2.78;;
82560;SDS011;72228;51.208;10.468;2024-02-26T05:12:33;4.65;;;3.03;;
82560;SDS011;72228;51.208;10.468;2024-02-26T05:15:01;5.65;;;3.65;;
82560;SDS011;72228;51.208;10.468;2024-02-26T05:17:29;7.10;;;3.25;;
82560;SDS011;72228;51.208;10.468;2024-02-26T05:19:55;6.10;;;4.03;;
82560;SDS011;72228;51.208;10.468;2024-02-26T05:22:20;8.25;;;3.50;;
82560;SDS011;72228;51.208;10.468;2024-02-26T05:24:46;4.40;;;2.85;;
82560;SDS011;72228;51.208;10.468;2024-02-26T05:27:12;5.25;;;3.65;;
82560;SDS011;72228;51.208;10.468;2024-02-26T05:29:38;5.05;;;3.33;;
82560;SDS011;72228;51.208;10.468;2024-02-26T05:32:04;6.45;;;3.45;;
82560;SDS011;72228;51.208;10.468;2024-02-26T05:34:31;6.05;;;3.50;;
82560;SDS011;72228;51.208;10.468;2024-02-26T05:36:58;5.55;;;3.78;;
82560;SDS011;72228;51.208;10.468;2024-02-26T05:39:24;5.18;;;3.40;;
82560;SDS011;72228;51.208;10.468;2024-02-26T05:41:50;5.80;;;3.25;;
82560;SDS011;72228;51.208;10.468;2024-02-26T05:44:16;5.53;;;3.10;;
82560;SDS011;72228;51.208;10.468;2024-02-26T05:46:42;15.20;;;4.22;;
82560;SDS011;72228;51.208;10.468;2024-02-26T05:49:26;7.25;;;3.83;;
82560;SDS011;72228;51.208;10.468;2024-02-26T05:51:52;5.60;;;3.05;;
82560;SDS011;72228;51.208;10.468;2024-02-26T05:54:18;6.07;;;3.28;;
82560;SDS011;72228;51.208;10.468;2024-02-26T05:56:44;10.02;;;4.28;;
82560;SDS011;72228;51.208;10.468;2024-02-26T05:59:10;7.43;;;4.18;;
82560;SDS011;72228;51.208;10.468;2024-02-26T06:01:36;12.00;;;4.47;;
82560;SDS011;72228;51.208;10.468;2024-02-26T06:04:01;6.65;;;3.38;;
82560;SDS011;72228;51.208;10.468;2024-02-26T06:06:27;7.13;;;4.45;;
82560;SDS011;72228;51.208;10.468;2024-02-26T06:08:53;7.60;;;4.57;;
82560;SDS011;72228;51.208;10.468;2024-02-26T06:11:19;6.72;;;4.35;;
82560;SDS011;72228;51.208;10.468;2024-02-26T06:13:45;6.75;;;3.58;;
82560;SDS011;72228;51.208;10.468;2024-02-26T06:16:11;12.35;;;7.10;;
82560;SDS011;72228;51.208;10.468;2024-02-26T06:18:36;14.77;;;8.07;;
82560;SDS011;72228;51.208;10.468;2024-02-26T06:21:02;14.63;;;6.95;;
82560;SDS011;72228;51.208;10.468;2024-02-26T06:23:28;9.27;;;5.97;;
82560;SDS011;72228;51.208;10.468;2024-02-26T06:25:54;14.02;;;6.35;;
82560;SDS011;72228;51.208;10.468;2024-02-26T06:28:20;14.93;;;7.63;;
82560;SDS011;72228;51.208;10.468;2024-02-26T06:30:46;17.75;;;7.97;;
82560;SDS011;72228;51.208;10.468;2024-02-26T06:33:12;21.35;;;8.15;;
82560;SDS011;72228;51.208;10.468;2024-02-26T06:35:38;16.88;;;8.73;;
82560;SDS011;72228;51.208;10.468;2024-02-26T06:38:04;19.40;;;8.73;;
82560;SDS011;72228;51.208;10.468;2024-02-26T06:40:29;16.60;;;7.82;;
82560;SDS011;72228;51.208;10.468;2024-02-26T06:42:55;16.08;;;7.97;;
82560;SDS011;72228;51.208;10.468;2024-02-26T06:45:22;12.52;;;6.07;;
82560;SDS011;72228;51.208;10.468;2024-02-26T06:47:48;12.30;;;6.40;;
82560;SDS011;72228;51.208;10.468;2024-02-26T06:50:13;13.90;;;5.60;;
82560;SDS011;72228;51.208;10.468;2024-02-26T06:52:39;12.52;;;6.20;;
82560;SDS011;72228;51.208;10.468;2024-02-26T06:55:06;14.13;;;6.68;;
82560;SDS011;72228;51.208;10.468;2024-02-26T06:57:33;12.43;;;6.57;;
82560;SDS011;72228;51.208;10.468;2024-02-26T06:59:59;13.38;;;6.43;;
82560;SDS011;72228;51.208;10.468;2024-02-26T07:02:25;13.60;;;5.97;;
82560;SDS011;72228;51.208;10.468;2024-02-26T07:04:51;11.98;;;5.75;;
82560;SDS011;72228;51.208;10.468;2024-02-26T07:07:17;16.67;;;7.88;;
82560;SDS011;72228;51.208;10.468;2024-02-26T07:09:44;18.05;;;11.13;;
82560;SDS011;72228;51.208;10.468;2024-02-26T07:12:10;19.15;;;9.73;;
82560;SDS011;72228;51.208;10.468;2024-02-26T07:14:36;21.17;;;10.88;;
82560;SDS011;72228;51.208;10.468;2024-02-26T07:17:03;22.27;;;10.48;;
82560;SDS011;72228;51.208;10.468;2024-02-26T07:19:29;21.90;;;10.02;;
82560;SDS011;72228;51.208;10.468;2024-02-26T07:21:55;17.60;;;9.77;;
82560;SDS011;72228;51.208;10.468;2024-02-26T07:24:21;18.88;;;8.65;;
82560;SDS011;72228;51.208;10.468;2024-02-26T07:26:47;15.30;;;8.43;;
82560;SDS011;72228;51.208;10.468;2024-02-26T07:29:13;14.63;;;7.07;;
82560;SDS011;72228;51.208;10.468;2024-02-26T07:31:38;18.52;;;8.45;;
82560;SDS011;72228;51.208;10.468;2024-02-26T07:34:05;16.30;;;7.60;;
82560;SDS011;72228;51.208;10.468;2024-02-26T07:36:31;16.67;;;9.18;;
82560;SDS011;72228;51.208;10.468;2024-02-26T07:38:56;13.35;;;6.10;;
82560;SDS011;72228;51.208;10.468;2024-02-26T07:41:22;13.68;;;6.80;;
82560;SDS011;72228;51.208;10.468;2024-02-26T07:43:48;17.08;;;7.57;;
82560;SDS011;72228;51.208;10.468;2024-02-26T07:46:14;18.30;;;8.63;;
82560;SDS011;72228;51.208;10.468;2024-02-26T07:48:40;21.30;;;9.43;;
82560;SDS011;72228;51.208;10.468;2024-02-26T07:51:07;23.95;;;11.68;;
82560;SDS011;72228;51.208;10.468;2024-02-26T07:53:33;16.60;;;9.57;;
82560;SDS011;72228;51.208;10.468;2024-02-26T07:55:59;19.98;;;9.93;;
82560;SDS011;72228;51.208;10.468;2024-02-26T07:58:25;18.85;;;9.25;;
82560;SDS011;72228;51.208;10.468;2024-02-26T08:00:51;24.90;;;9.77;;
82560;SDS011;72228;51.208;10.468;2024-02-26T08:03:27;25.75;;;13.98;;
82560;SDS011;72228;51.208;10.468;2024-02-26T08:07:33;30.83;;;15.38;;
82560;SDS011;72228;51.208;10.468;2024-02-26T08:58:25;24.45;;;9.88;;
82560;SDS011;72228;51.208;10.468;2024-02-26T09:02:34;29.50;;;10.93;;
82560;SDS011;72228;51.208;10.468;2024-02-26T11:21:56;19.15;;;8.88;;
82560;SDS011;72228;51.208;10.468;2024-02-26T11:34:25;27.10;;;11.30;;
82560;SDS011;72228;51.208;10.468;2024-02-26T11:41:50;19.08;;;9.00;;
82560;SDS011;72228;51.208;10.468;2024-02-26T11:53:38;19.30;;;9.75;;
82560;SDS011;72228;51.208;10.468;2024-02-26T12:14:27;23.13;;;10.07;;
82560;SDS011;72228;51.208;10.468;2024-02-26T12:22:59;14.75;;;8.27;;
82560;SDS011;72228;51.208;10.468;2024-02-26T12:26:34;18.30;;;8.60;;
82560;SDS011;72228;51.208;10.468;2024-02-26T12:30:40;14.43;;;7.18;;
82560;SDS011;72228;51.208;10.468;2024-02-26T12:33:48;16.45;;;8.00;;
82560;SDS011;72228;51.208;10.468;2024-02-26T14:03:50;25.58;;;5.75;;
82560;SDS011;72228;51.208;10.468;2024-02-26T14:06:16;14.73;;;8.95;;
82560;SDS011;72228;51.208;10.468;2024-02-26T14:08:42;15.88;;;8.85;;
82560;SDS011;72228;51.208;10.468;2024-02-26T14:11:09;17.60;;;8.95;;
82560;SDS011;72228;51.208;10.468;2024-02-26T14:13:34;17.05;;;8.43;;
82560;SDS011;72228;51.208;10.468;2024-02-26T14:16:00;22.02;;;11.18;;
82560;SDS011;72228;51.208;10.468;2024-02-26T14:18:26;14.00;;;7.55;;
82560;SDS011;72228;51.208;10.468;2024-02-26T14:20:52;15.98;;;8.07;;
82560;SDS011;72228;51.208;10.468;2024-02-26T14:23:18;20.60;;;8.82;;
82560;SDS011;72228;51.208;10.468;2024-02-26T14:25:44;17.83;;;8.88;;
82560;SDS011;72228;51.208;10.468;2024-02-26T14:28:11;14.88;;;7.63;;
82560;SDS011;72228;51.208;10.468;2024-02-26T14:30:37;18.80;;;9.45;;
82560;SDS011;72228;51.208;10.468;2024-02-26T14:33:03;17.00;;;9.55;;
82560;SDS011;72228;51.208;10.468;2024-02-26T14:35:29;16.73;;;8.73;;
82560;SDS011;72228;51.208;10.468;2024-02-26T14:37:55;10.93;;;6.47;;
82560;SDS011;72228;51.208;10.468;2024-02-26T14:40:26;17.67;;;8.27;;
82560;SDS011;72228;51.208;10.468;2024-02-26T14:42:52;11.10;;;7.10;;
82560;SDS011;72228;51.208;10.468;2024-02-26T14:45:18;12.98;;;6.65;;
82560;SDS011;72228;51.208;10.468;2024-02-26T14:47:44;17.83;;;8.82;;
82560;SDS011;72228;51.208;10.468;2024-02-26T14:50:10;10.70;;;6.28;;
82560;SDS011;72228;51.208;10.468;2024-02-26T14:52:36;14.43;;;7.70;;
82560;SDS011;72228;51.208;10.468;2024-02-26T14:55:02;12.68;;;7.57;;
82560;SDS011;72228;51.208;10.468;2024-02-26T14:57:29;12.60;;;7.10;;
82560;SDS011;72228;51.208;10.468;2024-02-26T14:59:55;14.00;;;7.85;;
82560;SDS011;72228;51.208;10.468;2024-02-26T15:02:20;13.05;;;7.50;;
82560;SDS011;72228;51.208;10.468;2024-02-26T15:04:46;14.15;;;6.35;;
82560;SDS011;72228;51.208;10.468;2024-02-26T15:07:12;15.70;;;7.72;;
82560;SDS011;72228;51.208;10.468;2024-02-26T15:09:38;14.45;;;7.75;;
82560;SDS011;72228;51.208;10.468;2024-02-26T15:12:05;12.55;;;7.80;;
82560;SDS011;72228;51.208;10.468;2024-02-26T15:14:36;18.63;;;8.80;;
82560;SDS011;72228;51.208;10.468;2024-02-26T15:17:03;13.77;;;7.18;;
82560;SDS011;72228;51.208;10.468;2024-02-26T15:19:29;15.50;;;7.63;;
82560;SDS011;72228;51.208;10.468;2024-02-26T15:21:54;13.40;;;6.90;;
82560;SDS011;72228;51.208;10.468;2024-02-26T15:24:20;17.25;;;7.38;;
82560;SDS011;72228;51.208;10.468;2024-02-26T15:26:46;13.10;;;7.15;;
82560;SDS011;72228;51.208;10.468;2024-02-26T15:29:12;12.65;;;6.85;;
82560;SDS011;72228;51.208;10.468;2024-02-26T15:31:39;12.57;;;6.97;;
82560;SDS011;72228;51.208;10.468;2024-02-26T15:34:05;11.93;;;7.05;;
82560;SDS011;72228;51.208;10.468;2024-02-26T15:36:31;11.32;;;5.65;;
82560;SDS011;72228;51.208;10.468;2024-02-26T15:38:57;16.90;;;6.60;;
82560;SDS011;72228;51.208;10.468;2024-02-26T15:41:22;12.30;;;6.70;;
82560;SDS011;72228;51.208;10.468;2024-02-26T15:43:48;11.73;;;6.80;;
82560;SDS011;72228;51.208;10.468;2024-02-26T15:46:16;13.10;;;6.53;;
82560;SDS011;72228;51.208;10.468;2024-02-26T15:48:42;14.32;;;6.82;;
82560;SDS011;72228;51.208;10.468;2024-02-26T15:51:16;25.33;;;7.25;;
82560;SDS011;72228;51.208;10.468;2024-02-26T15:53:44;10.23;;;6.03;;
82560;SDS011;72228;51.208;10.468;2024-02-26T15:56:10;13.45;;;6.57;;
82560;SDS011;72228;51.208;10.468;2024-02-26T15:58:35;9.00;;;6.30;;
82560;SDS011;72228;51.208;10.468;2024-02-26T16:01:02;10.07;;;6.30;;
82560;SDS011;72228;51.208;10.468;2024-02-26T16:03:29;15.15;;;6.80;;
82560;SDS011;72228;51.208;10.468;2024-02-26T16:05:55;11.30;;;5.70;;
82560;SDS011;72228;51.208;10.468;2024-02-26T16:08:21;9.35;;;6.10;;
82560;SDS011;72228;51.208;10.468;2024-02-26T16:10:49;14.35;;;6.50;;
82560;SDS011;72228;51.208;10.468;2024-02-26T16:13:15;11.05;;;6.95;;
82560;SDS011;72228;51.208;10.468;2024-02-26T16:15:50;17.13;;;7.28;;
82560;SDS011;72228;51.208;10.468;2024-02-26T16:18:27;11.80;;;6.47;;
82560;SDS011;72228;51.208;10.468;2024-02-26T16:20:53;13.15;;;7.10;;
82560;SDS011;72228;51.208;10.468;2024-02-26T16:23:20;12.05;;;6.85;;
82560;SDS011;72228;51.208;10.468;2024-02-26T16:25:48;13.77;;;7.53;;
82560;SDS011;72228;51.208;10.468;2024-02-26T16:28:13;13.02;;;7.60;;
82560;SDS011;72228;51.208;10.468;2024-02-26T16:30:39;16.23;;;7.25;;
82560;SDS011;72228;51.208;10.468;2024-02-26T16:33:05;15.68;;;7.30;;
82560;SDS011;72228;51.208;10.468;2024-02-26T16:35:31;13.43;;;7.18;;
82560;SDS011;72228;51.208;10.468;2024-02-26T16:37:58;12.13;;;6.45;;
82560;SDS011;72228;51.208;10.468;2024-02-26T16:40:24;13.55;;;7.05;;
82560;SDS011;72228;51.208;10.468;2024-02-26T16:42:50;12.02;;;6.00;;
82560;SDS011;72228;51.208;10.468;2024-02-26T16:45:16;10.38;;;5.97;;
82560;SDS011;72228;51.208;10.468;2024-02-26T16:47:42;10.77;;;7.00;;
82560;SDS011;72228;51.208;10.468;2024-02-26T16:50:09;12.30;;;6.97;;
82560;SDS011;72228;51.208;10.468;2024-02-26T16:52:35;16.70;;;8.13;;
82560;SDS011;72228;51.208;10.468;2024-02-26T16:55:01;18.63;;;8.30;;
82560;SDS011;72228;51.208;10.468;2024-02-26T16:57:28;13.38;;;8.00;;
82560;SDS011;72228;51.208;10.468;2024-02-26T16:59:54;12.25;;;7.20;;
82560;SDS011;72228;51.208;10.468;2024-02-26T17:02:20;14.50;;;7.32;;
82560;SDS011;72228;51.208;10.468;2024-02-26T17:04:46;13.00;;;7.47;;
82560;SDS011;72228;51.208;10.468;2024-02-26T17:07:12;15.18;;;8.20;;
82560;SDS011;72228;51.208;10.468;2024-02-26T17:09:40;15.02;;;8.57;;
82560;SDS011;72228;51.208;10.468;2024-02-26T17:12:06;15.13;;;9.23;;
82560;SDS011;72228;51.208;10.468;2024-02-26T17:14:37;20.63;;;9.25;;
82560;SDS011;72228;51.208;10.468;2024-02-26T17:17:26;17.73;;;8.45;;
82560;SDS011;72228;51.208;10.468;2024-02-26T17:20:06;17.40;;;10.07;;
82560;SDS011;72228;51.208;10.468;2024-02-26T17:22:33;19.25;;;9.88;;
82560;SDS011;72228;51.208;10.468;2024-02-26T17:24:59;23.55;;;10.20;;
82560;SDS011;72228;51.208;10.468;2024-02-26T17:27:25;22.48;;;9.98;;
82560;SDS011;72228;51.208;10.468;2024-02-26T17:29:54;19.08;;;10.00;;
82560;SDS011;72228;51.208;10.468;2024-02-26T17:32:19;19.33;;;9.77;;
82560;SDS011;72228;51.208;10.468;2024-02-26T17:34:45;17.63;;;8.10;;
82560;SDS011;72228;51.208;10.468;2024-02-26T17:37:13;17.83;;;9.52;;
82560;SDS011;72228;51.208;10.468;2024-02-26T17:39:39;19.10;;;9.27;;
82560;SDS011;72228;51.208;10.468;2024-02-26T17:42:05;16.27;;;9.60;;
82560;SDS011;72228;51.208;10.468;2024-02-26T17:44:36;20.15;;;10.07;;
82560;SDS011;72228;51.208;10.468;2024-02-26T17:47:02;18.73;;;9.73;;
82560;SDS011;72228;51.208;10.468;2024-02-26T17:49:28;19.23;;;11.73;;
82560;SDS011;72228;51.208;10.468;2024-02-26T17:51:54;15.60;;;8.65;;
82560;SDS011;72228;51.208;10.468;2024-02-26T17:54:20;14.15;;;8.98;;
82560;SDS011;72228;51.208;10.468;2024-02-26T17:56:46;14.88;;;8.68;;
82560;SDS011;72228;51.208;10.468;2024-02-26T17:59:12;14.43;;;8.13;;
82560;SDS011;72228;51.208;10.468;2024-02-26T18:01:38;17.40;;;8.45;;
82560;SDS011;72228;51.208;10.468;2024-02-26T18:04:04;19.25;;;9.85;;
82560;SDS011;72228;51.208;10.468;2024-02-26T18:06:30;20.10;;;9.95;;
82560;SDS011;72228;51.208;10.468;2024-02-26T18:08:56;20.27;;;11.25;;
82560;SDS011;72228;51.208;10.468;2024-02-26T18:11:22;20.30;;;10.57;;
82560;SDS011;72228;51.208;10.468;2024-02-26T18:13:48;18.98;;;10.70;;
82560;SDS011;72228;51.208;10.468;2024-02-26T18:16:14;21.65;;;11.38;;
82560;SDS011;72228;51.208;10.468;2024-02-26T18:18:40;17.80;;;10.25;;
82560;SDS011;72228;51.208;10.468;2024-02-26T18:21:06;19.38;;;10.57;;
82560;SDS011;72228;51.208;10.468;2024-02-26T18:23:31;17.85;;;11.02;;
82560;SDS011;72228;51.208;10.468;2024-02-26T18:25:57;20.65;;;9.52;;
82560;SDS011;72228;51.208;10.468;2024-02-26T18:28:23;22.90;;;10.70;;
82560;SDS011;72228;51.208;10.468;2024-02-26T18:30:49;13.90;;;8.63;;
82560;SDS011;72228;51.208;10.468;2024-02-26T18:33:15;19.63;;;9.40;;
82560;SDS011;72228;51.208;10.468;2024-02-26T18:35:41;19.63;;;10.43;;
82560;SDS011;72228;51.208;10.468;2024-02-26T18:38:07;18.38;;;10.25;;
82560;SDS011;72228;51.208;10.468;2024-02-26T18:40:33;21.67;;;10.82;;
82560;SDS011;72228;51.208;10.468;2024-02-26T18:43:01;16.13;;;9.18;;
82560;SDS011;72228;51.208;10.468;2024-02-26T18:45:27;24.00;;;9.27;;
82560;SDS011;72228;51.208;10.468;2024-02-26T18:47:53;18.67;;;10.65;;
82560;SDS011;72228;51.208;10.468;2024-02-26T18:50:19;20.63;;;9.52;;
82560;SDS011;72228;51.208;10.468;2024-02-26T18:52:45;17.95;;;9.75;;
82560;SDS011;72228;51.208;10.468;2024-02-26T18:55:13;21.23;;;10.10;;
82560;SDS011;72228;51.208;10.468;2024-02-26T18:57:39;18.92;;;10.68;;
82560;SDS011;72228;51.208;10.468;2024-02-26T19:00:08;20.55;;;11.05;;
82560;SDS011;72228;51.208;10.468;2024-02-26T19:02:43;17.63;;;10.32;;
82560;SDS011;72228;51.208;10.468;2024-02-26T19:05:09;20.70;;;9.80;;
82560;SDS011;72228;51.208;10.468;2024-02-26T19:07:35;20.58;;;10.40;;
82560;SDS011;72228;51.208;10.468;2024-02-26T19:10:01;20.30;;;9.82;;
82560;SDS011;72228;51.208;10.468;2024-02-26T19:12:28;19.90;;;10.40;;
82560;SDS011;72228;51.208;10.468;2024-02-26T19:14:54;22.95;;;11.63;;
82560;SDS011;72228;51.208;10.468;2024-02-26T19:17:20;21.95;;;10.40;;
82560;SDS011;72228;51.208;10.468;2024-02-26T19:19:48;20.38;;;11.30;;
82560;SDS011;72228;51.208;10.468;2024-02-26T19:22:14;23.38;;;11.73;;
82560;SDS011;72228;51.208;10.468;2024-02-26T19:24:40;24.05;;;10.95;;
82560;SDS011;72228;51.208;10.468;2024-02-26T19:27:06;22.90;;;10.20;;
82560;SDS011;72228;51.208;10.468;2024-02-26T19:29:32;22.83;;;10.48;;
82560;SDS011;72228;51.208;10.468;2024-02-26T19:31:58;19.73;;;11.05;;
82560;SDS011;72228;51.208;10.468;2024-02-26T19:34:24;18.75;;;10.05;;
82560;SDS011;72228;51.208;10.468;2024-02-26T19:36:51;17.67;;;10.02;;
82560;SDS011;72228;51.208;10.468;2024-02-26T19:39:17;21.65;;;11.02;;
82560;SDS011;72228;51.208;10.468;2024-02-26T19:41:43;16.60;;;8.75;;
82560;SDS011;72228;51.208;10.468;2024-02-26T19:44:10;17.02;;;9.30;;
82560;SDS011;72228;51.208;10.468;2024-02-26T19:46:38;19.88;;;9.40;;
82560;SDS011;72228;51.208;10.468;2024-02-26T19:49:04;20.30;;;10.73;;